sensor_id;sensor_type;location;lat;lon;timestamp;pressure;altitude;pressure_sealevel;temperature;humidity
21803;BME280;18591;47.080;22.214;2023-02-25T00:00:39;98216.88;;;12.12;66.69
21803;BME280;18591;47.080;22.214;2023-02-25T00:02:43;98226.91;;;12.10;66.40
21803;BME280;18591;47.080;22.214;2023-02-25T00:04:46;98220.63;;;12.10;66.37
21803;BME280;18591;47.080;22.214;2023-02-25T00:06:49;98217.78;;;11.98;66.75
21803;BME280;18591;47.080;22.214;2023-02-25T00:08:51;98205.66;;;12.06;66.12
21803;BME280;18591;47.080;22.214;2023-02-25T00:11:02;98205.75;;;12.04;66.63
21803;BME280;18591;47.080;22.214;2023-02-25T00:13:04;98213.63;;;12.07;66.38
21803;BME280;18591;47.080;22.214;2023-02-25T00:15:19;98197.59;;;12.06;66.59
21803;BME280;18591;47.080;22.214;2023-02-25T00:17:21;98205.66;;;12.06;66.43
21803;BME280;18591;47.080;22.214;2023-02-25T00:19:24;98206.75;;;12.03;66.47
21803;BME280;18591;47.080;22.214;2023-02-25T00:21:27;98210.38;;;12.02;66.61
21803;BME280;18591;47.080;22.214;2023-02-25T00:23:30;98211.16;;;12.04;66.55
21803;BME280;18591;47.080;22.214;2023-02-25T00:25:32;98205.25;;;12.12;66.20
21803;BME280;18591;47.080;22.214;2023-02-25T00:27:35;98196.97;;;12.15;66.39
21803;BME280;18591;47.080;22.214;2023-02-25T00:29:37;98196.69;;;12.19;65.92
21803;BME280;18591;47.080;22.214;2023-02-25T00:31:40;98192.34;;;12.17;66.17
21803;BME280;18591;47.080;22.214;2023-02-25T00:33:43;98194.75;;;12.22;66.14
21803;BME280;18591;47.080;22.214;2023-02-25T00:35:45;98201.75;;;12.24;66.23
21803;BME280;18591;47.080;22.214;2023-02-25T00:37:50;98192.91;;;12.22;66.47
21803;BME280;18591;47.080;22.214;2023-02-25T00:39:52;98177.53;;;12.24;65.94
21803;BME280;18591;47.080;22.214;2023-02-25T00:41:55;98178.69;;;12.20;65.96
21803;BME280;18591;47.080;22.214;2023-02-25T00:43:59;98176.56;;;12.25;65.75
21803;BME280;18591;47.080;22.214;2023-02-25T00:46:01;98160.31;;;12.27;65.49
21803;BME280;18591;47.080;22.214;2023-02-25T00:48:06;98156.97;;;12.23;65.01
21803;BME280;18591;47.080;22.214;2023-02-25T00:50:10;98160.88;;;12.32;64.94
21803;BME280;18591;47.080;22.214;2023-02-25T00:52:13;98156.63;;;12.28;64.81
21803;BME280;18591;47.080;22.214;2023-02-25T00:54:15;98157.19;;;12.33;64.82
21803;BME280;18591;47.080;22.214;2023-02-25T00:56:18;98150.94;;;12.32;64.65
21803;BME280;18591;47.080;22.214;2023-02-25T00:58:21;98165.41;;;12.31;64.87
21803;BME280;18591;47.080;22.214;2023-02-25T01:00:24;98146.75;;;12.28;64.76
21803;BME280;18591;47.080;22.214;2023-02-25T01:02:26;98133.03;;;12.18;65.51
21803;BME280;18591;47.080;22.214;2023-02-25T01:04:28;98121.97;;;12.23;65.49
21803;BME280;18591;47.080;22.214;2023-02-25T01:06:32;98135.19;;;12.13;65.18
21803;BME280;18591;47.080;22.214;2023-02-25T01:08:37;98144.88;;;12.16;65.58
21803;BME280;18591;47.080;22.214;2023-02-25T01:10:40;98137.34;;;12.21;65.15
21803;BME280;18591;47.080;22.214;2023-02-25T01:12:42;98123.69;;;12.24;64.98
21803;BME280;18591;47.080;22.214;2023-02-25T01:14:44;98127.75;;;12.17;65.44
21803;BME280;18591;47.080;22.214;2023-02-25T01:16:47;98121.84;;;12.25;65.11
21803;BME280;18591;47.080;22.214;2023-02-25T01:18:51;98103.00;;;12.25;65.12
21803;BME280;18591;47.080;22.214;2023-02-25T01:20:55;98102.06;;;12.26;65.14
21803;BME280;18591;47.080;22.214;2023-02-25T01:22:57;98113.78;;;12.25;65.07
21803;BME280;18591;47.080;22.214;2023-02-25T01:25:00;98112.38;;;12.19;65.67
21803;BME280;18591;47.080;22.214;2023-02-25T01:27:02;98110.22;;;12.24;65.19
21803;BME280;18591;47.080;22.214;2023-02-25T01:29:06;98107.06;;;12.17;65.86
21803;BME280;18591;47.080;22.214;2023-02-25T01:31:16;98099.75;;;12.19;65.99
21803;BME280;18591;47.080;22.214;2023-02-25T01:33:20;98102.16;;;12.24;65.67
21803;BME280;18591;47.080;22.214;2023-02-25T01:35:22;98091.47;;;12.23;65.51
21803;BME280;18591;47.080;22.214;2023-02-25T01:37:25;98089.97;;;12.18;65.47
21803;BME280;18591;47.080;22.214;2023-02-25T01:39:28;98093.31;;;12.22;65.36
21803;BME280;18591;47.080;22.214;2023-02-25T01:41:32;98089.84;;;12.20;65.33
21803;BME280;18591;47.080;22.214;2023-02-25T01:43:35;98097.19;;;12.18;65.42
21803;BME280;18591;47.080;22.214;2023-02-25T01:45:41;98097.38;;;12.15;65.66
21803;BME280;18591;47.080;22.214;2023-02-25T01:47:48;98107.41;;;12.13;65.93
21803;BME280;18591;47.080;22.214;2023-02-25T01:49:51;98096.22;;;12.19;65.51
21803;BME280;18591;47.080;22.214;2023-02-25T01:52:09;98081.75;;;12.20;65.42
21803;BME280;18591;47.080;22.214;2023-02-25T01:54:12;98079.63;;;12.25;65.34
21803;BME280;18591;47.080;22.214;2023-02-25T01:56:16;98069.19;;;12.20;65.47
21803;BME280;18591;47.080;22.214;2023-02-25T01:58:22;98072.63;;;12.23;64.99
21803;BME280;18591;47.080;22.214;2023-02-25T02:00:24;98068.00;;;12.25;64.84
21803;BME280;18591;47.080;22.214;2023-02-25T02:02:28;98064.34;;;12.26;64.96
21803;BME280;18591;47.080;22.214;2023-02-25T02:04:37;98050.34;;;12.20;64.72
21803;BME280;18591;47.080;22.214;2023-02-25T02:06:47;98059.50;;;12.18;64.67
21803;BME280;18591;47.080;22.214;2023-02-25T02:08:51;98065.63;;;12.20;64.57
21803;BME280;18591;47.080;22.214;2023-02-25T02:10:53;98058.59;;;12.17;64.87
21803;BME280;18591;47.080;22.214;2023-02-25T02:12:56;98065.31;;;12.25;64.60
21803;BME280;18591;47.080;22.214;2023-02-25T02:15:01;98036.00;;;12.20;64.60
21803;BME280;18591;47.080;22.214;2023-02-25T02:22:48;98023.84;;;12.14;63.69
21803;BME280;18591;47.080;22.214;2023-02-25T02:26:45;98036.22;;;12.17;63.44
21803;BME280;18591;47.080;22.214;2023-02-25T02:33:50;98011.69;;;12.22;63.48
21803;BME280;18591;47.080;22.214;2023-02-25T02:36:00;98008.97;;;12.22;63.54
21803;BME280;18591;47.080;22.214;2023-02-25T02:47:23;97984.44;;;12.13;63.24
21803;BME280;18591;47.080;22.214;2023-02-25T02:49:55;97987.44;;;12.22;63.12
21803;BME280;18591;47.080;22.214;2023-02-25T02:52:04;97981.00;;;12.24;62.61
21803;BME280;18591;47.080;22.214;2023-02-25T02:54:10;97976.25;;;12.28;62.55
21803;BME280;18591;47.080;22.214;2023-02-25T02:56:17;97978.19;;;12.26;62.58
21803;BME280;18591;47.080;22.214;2023-02-25T02:58:52;97977.00;;;12.30;62.32
21803;BME280;18591;47.080;22.214;2023-02-25T03:01:08;97972.38;;;12.32;62.29
21803;BME280;18591;47.080;22.214;2023-02-25T03:03:19;97965.38;;;12.29;62.54
21803;BME280;18591;47.080;22.214;2023-02-25T03:05:23;97973.00;;;12.35;62.54
21803;BME280;18591;47.080;22.214;2023-02-25T03:07:31;97961.81;;;12.29;62.08
21803;BME280;18591;47.080;22.214;2023-02-25T03:09:51;97966.13;;;12.31;62.09
21803;BME280;18591;47.080;22.214;2023-02-25T03:11:55;97966.53;;;12.38;62.36
21803;BME280;18591;47.080;22.214;2023-02-25T03:13:57;97949.44;;;12.39;62.28
21803;BME280;18591;47.080;22.214;2023-02-25T03:16:03;97956.00;;;12.35;61.74
21803;BME280;18591;47.080;22.214;2023-02-25T03:18:17;97952.53;;;12.33;61.57
21803;BME280;18591;47.080;22.214;2023-02-25T03:20:39;97950.94;;;12.30;61.61
21803;BME280;18591;47.080;22.214;2023-02-25T03:22:45;97949.84;;;12.33;61.86
21803;BME280;18591;47.080;22.214;2023-02-25T03:24:57;97941.03;;;12.31;61.70
21803;BME280;18591;47.080;22.214;2023-02-25T03:27:23;97945.22;;;12.35;61.59
21803;BME280;18591;47.080;22.214;2023-02-25T03:29:29;97951.28;;;12.38;61.44
21803;BME280;18591;47.080;22.214;2023-02-25T03:31:40;97947.16;;;12.33;61.62
21803;BME280;18591;47.080;22.214;2023-02-25T03:35:57;97944.81;;;12.41;61.28
21803;BME280;18591;47.080;22.214;2023-02-25T03:38:18;97940.59;;;12.37;61.12
21803;BME280;18591;47.080;22.214;2023-02-25T03:40:24;97944.69;;;12.42;61.29
21803;BME280;18591;47.080;22.214;2023-02-25T03:42:31;97940.81;;;12.34;60.73
21803;BME280;18591;47.080;22.214;2023-02-25T03:44:38;97936.81;;;12.39;61.35
21803;BME280;18591;47.080;22.214;2023-02-25T03:46:44;97930.69;;;12.37;60.81
21803;BME280;18591;47.080;22.214;2023-02-25T03:48:50;97931.22;;;12.42;60.63
21803;BME280;18591;47.080;22.214;2023-02-25T03:50:59;97926.69;;;12.43;60.49
21803;BME280;18591;47.080;22.214;2023-02-25T03:53:03;97925.50;;;12.47;60.85
21803;BME280;18591;47.080;22.214;2023-02-25T03:55:38;97917.53;;;12.46;61.00
21803;BME280;18591;47.080;22.214;2023-02-25T03:57:42;97916.56;;;12.47;60.43
21803;BME280;18591;47.080;22.214;2023-02-25T03:59:48;97906.97;;;12.42;60.41
21803;BME280;18591;47.080;22.214;2023-02-25T04:01:51;97910.66;;;12.41;59.96
21803;BME280;18591;47.080;22.214;2023-02-25T04:03:54;97906.97;;;12.42;60.06
21803;BME280;18591;47.080;22.214;2023-02-25T04:05:56;97904.72;;;12.49;60.30
21803;BME280;18591;47.080;22.214;2023-02-25T04:07:59;97906.56;;;12.49;60.42
21803;BME280;18591;47.080;22.214;2023-02-25T04:10:09;97904.81;;;12.48;60.31
21803;BME280;18591;47.080;22.214;2023-02-25T04:12:11;97903.97;;;12.47;59.97
21803;BME280;18591;47.080;22.214;2023-02-25T04:14:13;97893.81;;;12.51;60.41
21803;BME280;18591;47.080;22.214;2023-02-25T04:16:16;97902.97;;;12.48;60.34
21803;BME280;18591;47.080;22.214;2023-02-25T04:18:19;97909.25;;;12.49;60.12
21803;BME280;18591;47.080;22.214;2023-02-25T04:20:21;97892.56;;;12.44;60.23
21803;BME280;18591;47.080;22.214;2023-02-25T04:22:24;97886.81;;;12.48;59.95
21803;BME280;18591;47.080;22.214;2023-02-25T04:24:26;97890.41;;;12.49;60.40
21803;BME280;18591;47.080;22.214;2023-02-25T04:26:28;97888.56;;;12.49;60.28
21803;BME280;18591;47.080;22.214;2023-02-25T04:28:30;97881.22;;;12.51;59.98
21803;BME280;18591;47.080;22.214;2023-02-25T04:30:32;97885.72;;;12.51;60.37
21803;BME280;18591;47.080;22.214;2023-02-25T04:32:35;97885.22;;;12.46;59.75
21803;BME280;18591;47.080;22.214;2023-02-25T04:34:37;97882.94;;;12.52;60.01
21803;BME280;18591;47.080;22.214;2023-02-25T04:36:39;97881.66;;;12.45;60.32
21803;BME280;18591;47.080;22.214;2023-02-25T04:38:42;97877.47;;;12.41;60.26
21803;BME280;18591;47.080;22.214;2023-02-25T04:40:44;97869.28;;;12.42;60.42
21803;BME280;18591;47.080;22.214;2023-02-25T04:42:47;97878.13;;;12.45;60.75
21803;BME280;18591;47.080;22.214;2023-02-25T04:44:49;97881.66;;;12.45;60.64
21803;BME280;18591;47.080;22.214;2023-02-25T04:46:51;97863.78;;;12.44;60.56
21803;BME280;18591;47.080;22.214;2023-02-25T04:48:54;97869.28;;;12.42;60.37
21803;BME280;18591;47.080;22.214;2023-02-25T04:51:00;97860.56;;;12.39;60.40
21803;BME280;18591;47.080;22.214;2023-02-25T04:53:03;97867.44;;;12.43;60.23
21803;BME280;18591;47.080;22.214;2023-02-25T04:55:06;97866.34;;;12.46;60.41
21803;BME280;18591;47.080;22.214;2023-02-25T04:57:11;97870.13;;;12.43;60.84
21803;BME280;18591;47.080;22.214;2023-02-25T04:59:14;97857.31;;;12.47;60.60
21803;BME280;18591;47.080;22.214;2023-02-25T05:01:17;97871.75;;;12.46;60.66
21803;BME280;18591;47.080;22.214;2023-02-25T05:03:19;97868.84;;;12.49;60.70
21803;BME280;18591;47.080;22.214;2023-02-25T05:05:21;97863.78;;;12.44;60.81
21803;BME280;18591;47.080;22.214;2023-02-25T05:07:24;97862.94;;;12.44;60.64
21803;BME280;18591;47.080;22.214;2023-02-25T05:09:26;97870.50;;;12.38;60.92
21803;BME280;18591;47.080;22.214;2023-02-25T05:11:28;97866.72;;;12.41;61.07
21803;BME280;18591;47.080;22.214;2023-02-25T05:13:30;97869.28;;;12.42;61.09
21803;BME280;18591;47.080;22.214;2023-02-25T05:15:33;97850.56;;;12.41;60.86
21803;BME280;18591;47.080;22.214;2023-02-25T05:17:35;97864.97;;;12.40;61.11
21803;BME280;18591;47.080;22.214;2023-02-25T05:19:37;97860.44;;;12.40;60.87
21803;BME280;18591;47.080;22.214;2023-02-25T05:21:39;97865.97;;;12.39;61.09
21803;BME280;18591;47.080;22.214;2023-02-25T05:23:43;97849.03;;;12.37;61.15
21803;BME280;18591;47.080;22.214;2023-02-25T05:25:45;97845.69;;;12.46;60.83
21803;BME280;18591;47.080;22.214;2023-02-25T05:27:47;97848.25;;;12.48;60.65
21803;BME280;18591;47.080;22.214;2023-02-25T05:29:49;97851.09;;;12.46;60.58
21803;BME280;18591;47.080;22.214;2023-02-25T05:31:52;97844.19;;;12.42;60.87
21803;BME280;18591;47.080;22.214;2023-02-25T05:33:56;97827.19;;;12.41;60.94
21803;BME280;18591;47.080;22.214;2023-02-25T05:35:58;97836.09;;;12.42;60.77
21803;BME280;18591;47.080;22.214;2023-02-25T05:38:00;97826.88;;;12.33;61.22
21803;BME280;18591;47.080;22.214;2023-02-25T05:40:03;97832.47;;;12.30;61.22
21803;BME280;18591;47.080;22.214;2023-02-25T05:42:05;97826.88;;;12.33;61.26
21803;BME280;18591;47.080;22.214;2023-02-25T05:44:09;97829.78;;;12.30;61.62
21803;BME280;18591;47.080;22.214;2023-02-25T05:46:12;97832.34;;;12.32;61.44
21803;BME280;18591;47.080;22.214;2023-02-25T05:48:14;97822.44;;;12.32;61.18
21803;BME280;18591;47.080;22.214;2023-02-25T05:50:16;97845.72;;;12.33;61.39
21803;BME280;18591;47.080;22.214;2023-02-25T05:52:18;97843.03;;;12.33;61.50
21803;BME280;18591;47.080;22.214;2023-02-25T05:54:21;97821.81;;;12.29;61.67
21803;BME280;18591;47.080;22.214;2023-02-25T05:56:24;97809.13;;;12.31;61.32
21803;BME280;18591;47.080;22.214;2023-02-25T05:58:26;97802.97;;;12.29;61.74
21803;BME280;18591;47.080;22.214;2023-02-25T06:00:28;97802.22;;;12.27;61.35
21803;BME280;18591;47.080;22.214;2023-02-25T06:02:32;97819.34;;;12.26;61.93
21803;BME280;18591;47.080;22.214;2023-02-25T06:04:34;97818.81;;;12.20;61.87
21803;BME280;18591;47.080;22.214;2023-02-25T06:06:36;97811.84;;;12.18;62.32
21803;BME280;18591;47.080;22.214;2023-02-25T06:08:39;97816.00;;;12.22;61.84
21803;BME280;18591;47.080;22.214;2023-02-25T06:10:42;97819.56;;;12.23;62.14
21803;BME280;18591;47.080;22.214;2023-02-25T06:12:47;97823.69;;;12.15;62.68
21803;BME280;18591;47.080;22.214;2023-02-25T06:14:49;97818.31;;;12.15;62.67
21803;BME280;18591;47.080;22.214;2023-02-25T06:16:51;97812.78;;;12.17;62.26
21803;BME280;18591;47.080;22.214;2023-02-25T06:18:59;97815.47;;;12.17;62.20
21803;BME280;18591;47.080;22.214;2023-02-25T06:21:03;97847.91;;;12.15;62.69
21803;BME280;18591;47.080;22.214;2023-02-25T06:23:06;97843.25;;;12.17;62.78
21803;BME280;18591;47.080;22.214;2023-02-25T06:25:08;97836.91;;;12.18;62.62
21803;BME280;18591;47.080;22.214;2023-02-25T06:27:10;97831.31;;;12.22;62.88
21803;BME280;18591;47.080;22.214;2023-02-25T06:29:13;97822.25;;;12.23;62.75
21803;BME280;18591;47.080;22.214;2023-02-25T06:31:17;97815.78;;;12.25;62.63
21803;BME280;18591;47.080;22.214;2023-02-25T06:33:19;97824.63;;;12.27;62.71
21803;BME280;18591;47.080;22.214;2023-02-25T06:35:22;97823.44;;;12.31;62.30
21803;BME280;18591;47.080;22.214;2023-02-25T06:37:24;97818.91;;;12.32;62.44
21803;BME280;18591;47.080;22.214;2023-02-25T06:39:26;97829.66;;;12.32;62.79
21803;BME280;18591;47.080;22.214;2023-02-25T06:41:28;97823.97;;;12.36;62.28
21803;BME280;18591;47.080;22.214;2023-02-25T06:43:31;97812.84;;;12.41;62.13
21803;BME280;18591;47.080;22.214;2023-02-25T06:45:33;97836.44;;;12.37;62.75
21803;BME280;18591;47.080;22.214;2023-02-25T06:47:35;97837.28;;;12.38;62.55
21803;BME280;18591;47.080;22.214;2023-02-25T06:49:37;97806.81;;;12.37;62.80
21803;BME280;18591;47.080;22.214;2023-02-25T06:51:39;97816.84;;;12.35;62.89
21803;BME280;18591;47.080;22.214;2023-02-25T06:53:42;97806.59;;;12.40;63.22
21803;BME280;18591;47.080;22.214;2023-02-25T06:55:45;97812.72;;;12.42;63.10
21803;BME280;18591;47.080;22.214;2023-02-25T06:57:47;97797.31;;;12.45;63.59
21803;BME280;18591;47.080;22.214;2023-02-25T06:59:49;97803.56;;;12.45;63.92
21803;BME280;18591;47.080;22.214;2023-02-25T07:01:54;97798.84;;;12.49;63.66
21803;BME280;18591;47.080;22.214;2023-02-25T07:03:56;97795.63;;;12.44;63.73
21803;BME280;18591;47.080;22.214;2023-02-25T07:05:58;97791.69;;;12.48;63.70
21803;BME280;18591;47.080;22.214;2023-02-25T07:08:00;97804.53;;;12.44;63.69
21803;BME280;18591;47.080;22.214;2023-02-25T07:10:03;97818.75;;;12.46;63.61
21803;BME280;18591;47.080;22.214;2023-02-25T07:12:06;97815.31;;;12.44;63.63
21803;BME280;18591;47.080;22.214;2023-02-25T07:14:08;97802.09;;;12.41;63.61
21803;BME280;18591;47.080;22.214;2023-02-25T07:16:11;97819.19;;;12.40;63.55
21803;BME280;18591;47.080;22.214;2023-02-25T07:18:14;97829.34;;;12.36;63.52
21803;BME280;18591;47.080;22.214;2023-02-25T07:20:17;97798.13;;;12.34;63.82
21803;BME280;18591;47.080;22.214;2023-02-25T07:22:19;97769.28;;;12.23;63.99
21803;BME280;18591;47.080;22.214;2023-02-25T07:24:24;97773.59;;;12.26;63.82
21803;BME280;18591;47.080;22.214;2023-02-25T07:26:27;97759.69;;;12.19;64.41
21803;BME280;18591;47.080;22.214;2023-02-25T07:28:29;97775.09;;;12.17;64.60
21803;BME280;18591;47.080;22.214;2023-02-25T07:30:32;97800.94;;;12.19;64.39
21803;BME280;18591;47.080;22.214;2023-02-25T07:32:34;97807.63;;;12.14;64.55
21803;BME280;18591;47.080;22.214;2023-02-25T07:34:37;97818.84;;;12.08;64.76
21803;BME280;18591;47.080;22.214;2023-02-25T07:36:40;97791.56;;;12.12;64.05
21803;BME280;18591;47.080;22.214;2023-02-25T07:38:42;97798.50;;;12.04;64.98
21803;BME280;18591;47.080;22.214;2023-02-25T07:40:44;97805.94;;;12.00;64.96
21803;BME280;18591;47.080;22.214;2023-02-25T07:42:46;97818.63;;;11.98;65.62
21803;BME280;18591;47.080;22.214;2023-02-25T07:44:48;97807.13;;;11.96;65.48
21803;BME280;18591;47.080;22.214;2023-02-25T07:46:53;97810.66;;;11.96;65.20
21803;BME280;18591;47.080;22.214;2023-02-25T07:48:55;97826.72;;;11.98;65.57
21803;BME280;18591;47.080;22.214;2023-02-25T07:51:08;97848.34;;;11.96;66.20
21803;BME280;18591;47.080;22.214;2023-02-25T07:53:11;97837.56;;;11.96;66.22
21803;BME280;18591;47.080;22.214;2023-02-25T07:55:13;97855.56;;;11.96;66.54
21803;BME280;18591;47.080;22.214;2023-02-25T07:57:15;97825.72;;;11.99;66.73
21803;BME280;18591;47.080;22.214;2023-02-25T07:59:21;97830.88;;;12.02;65.97
21803;BME280;18591;47.080;22.214;2023-02-25T08:03:28;97821.75;;;11.92;66.90
21803;BME280;18591;47.080;22.214;2023-02-25T08:05:34;97816.03;;;11.96;66.68
21803;BME280;18591;47.080;22.214;2023-02-25T08:07:37;97817.13;;;11.94;66.75
21803;BME280;18591;47.080;22.214;2023-02-25T08:09:41;97812.81;;;11.91;66.58
21803;BME280;18591;47.080;22.214;2023-02-25T08:11:44;97821.75;;;11.92;67.12
21803;BME280;18591;47.080;22.214;2023-02-25T08:13:47;97814.34;;;11.95;66.81
21803;BME280;18591;47.080;22.214;2023-02-25T08:15:49;97807.34;;;11.93;66.88
21803;BME280;18591;47.080;22.214;2023-02-25T08:17:51;97809.72;;;11.97;66.81
21803;BME280;18591;47.080;22.214;2023-02-25T08:19:56;97810.56;;;11.98;67.34
21803;BME280;18591;47.080;22.214;2023-02-25T08:21:59;97809.59;;;11.99;67.18
21803;BME280;18591;47.080;22.214;2023-02-25T08:24:01;97810.03;;;12.06;66.98
21803;BME280;18591;47.080;22.214;2023-02-25T08:26:04;97809.25;;;12.04;67.27
21803;BME280;18591;47.080;22.214;2023-02-25T08:28:06;97817.66;;;11.99;66.99
21803;BME280;18591;47.080;22.214;2023-02-25T08:30:08;97822.28;;;11.97;67.07
21803;BME280;18591;47.080;22.214;2023-02-25T08:32:11;97817.13;;;11.94;67.54
21803;BME280;18591;47.080;22.214;2023-02-25T08:34:13;97807.97;;;11.96;67.38
21803;BME280;18591;47.080;22.214;2023-02-25T08:36:18;97810.13;;;11.91;67.04
21803;BME280;18591;47.080;22.214;2023-02-25T08:38:21;97792.88;;;11.81;67.94
21803;BME280;18591;47.080;22.214;2023-02-25T08:40:23;97799.25;;;11.80;67.54
21803;BME280;18591;47.080;22.214;2023-02-25T08:42:26;97802.69;;;11.82;67.21
21803;BME280;18591;47.080;22.214;2023-02-25T08:44:28;97802.47;;;11.85;67.31
21803;BME280;18591;47.080;22.214;2023-02-25T08:46:36;97808.53;;;11.89;67.08
21803;BME280;18591;47.080;22.214;2023-02-25T08:48:41;97799.03;;;11.96;67.22
21803;BME280;18591;47.080;22.214;2023-02-25T08:50:43;97804.44;;;11.96;67.33
21803;BME280;18591;47.080;22.214;2023-02-25T08:52:46;97805.81;;;12.02;67.17
21803;BME280;18591;47.080;22.214;2023-02-25T08:54:48;97804.97;;;12.01;66.96
21803;BME280;18591;47.080;22.214;2023-02-25T08:56:51;97808.50;;;12.02;67.43
21803;BME280;18591;47.080;22.214;2023-02-25T08:58:56;97808.41;;;12.03;67.65
21803;BME280;18591;47.080;22.214;2023-02-25T09:00:58;97821.63;;;12.06;67.65
21803;BME280;18591;47.080;22.214;2023-02-25T09:03:00;97820.66;;;12.07;67.98
21803;BME280;18591;47.080;22.214;2023-02-25T09:05:02;97825.09;;;12.08;67.32
21803;BME280;18591;47.080;22.214;2023-02-25T09:07:05;97828.19;;;12.02;68.16
21803;BME280;18591;47.080;22.214;2023-02-25T09:09:07;97824.44;;;12.05;67.80
21803;BME280;18591;47.080;22.214;2023-02-25T09:11:10;97831.78;;;12.03;68.29
21803;BME280;18591;47.080;22.214;2023-02-25T09:13:13;97833.72;;;12.01;68.48
21803;BME280;18591;47.080;22.214;2023-02-25T09:15:15;97820.88;;;12.04;68.39
21803;BME280;18591;47.080;22.214;2023-02-25T09:17:17;97821.88;;;12.03;68.00
21803;BME280;18591;47.080;22.214;2023-02-25T09:19:20;97824.97;;;12.10;67.81
21803;BME280;18591;47.080;22.214;2023-02-25T09:21:22;97825.94;;;12.09;68.00
21803;BME280;18591;47.080;22.214;2023-02-25T09:23:25;97824.88;;;11.98;68.15
21803;BME280;18591;47.080;22.214;2023-02-25T09:25:28;97831.66;;;12.04;67.93
21803;BME280;18591;47.080;22.214;2023-02-25T09:27:31;97837.88;;;12.05;68.00
21803;BME280;18591;47.080;22.214;2023-02-25T09:29:35;97834.88;;;12.09;67.89
21803;BME280;18591;47.080;22.214;2023-02-25T09:31:37;97847.25;;;12.12;67.83
21803;BME280;18591;47.080;22.214;2023-02-25T09:33:41;97851.69;;;12.13;68.11
21803;BME280;18591;47.080;22.214;2023-02-25T09:35:43;97860.19;;;12.07;68.28
21803;BME280;18591;47.080;22.214;2023-02-25T09:37:46;97860.06;;;12.08;67.82
21803;BME280;18591;47.080;22.214;2023-02-25T09:39:51;97867.69;;;12.14;67.66
21803;BME280;18591;47.080;22.214;2023-02-25T09:44:43;97878.16;;;12.06;67.20
21803;BME280;18591;47.080;22.214;2023-02-25T09:47:13;97890.97;;;12.03;66.85
21803;BME280;18591;47.080;22.214;2023-02-25T09:49:23;97887.75;;;11.97;66.55
